Time;durP1;ratioP1;P1;durP2;ratioP2;P2;SDS_P1;SDS_P2;PMS_P1;PMS_P2;Temp;Humidity;BMP_temperature;BMP_pressure;BME280_temperature;BME280_humidity;BME280_pressure;Samples;Min_cycle;Max_cycle;Signal;HPM_P1;HPM_P2
2021/03/18 00:01:12;;;;;;;8.20;5.33;;;1.80;99.90;;;;;;4878910;29;20453;-88
2021/03/18 00:03:39;;;;;;;6.77;5.10;;;1.60;99.90;;;;;;4863737;29;20201;-88
2021/03/18 00:06:06;;;;;;;6.77;6.07;;;1.60;99.90;;;;;;4863730;29;20967;-88
2021/03/18 00:08:32;;;;;;;5.73;5.00;;;1.60;99.90;;;;;;4862989;29;22458;-88
2021/03/18 00:11:00;;;;;;;7.20;5.10;;;1.70;99.90;;;;;;4863070;29;20882;-88
2021/03/18 00:13:29;;;;;;;5.27;4.77;;;1.60;99.90;;;;;;4861209;29;20864;-88
2021/03/18 00:15:56;;;;;;;7.53;5.23;;;1.60;99.90;;;;;;4861395;29;20449;-88
2021/03/18 00:18:32;;;;;;;5.20;4.63;;;1.70;99.90;;;;;;4880332;29;20473;-88
2021/03/18 00:21:00;;;;;;;4.80;4.27;;;1.60;99.90;;;;;;4878013;29;20899;-88
2021/03/18 00:23:27;;;;;;;5.50;4.90;;;1.60;99.90;;;;;;4880073;29;20836;-88
2021/03/18 00:25:53;;;;;;;6.10;4.90;;;1.70;99.90;;;;;;4882896;29;20449;-89
2021/03/18 00:28:19;;;;;;;5.93;5.10;;;1.80;99.90;;;;;;4864775;29;20505;-89
2021/03/18 00:30:44;;;;;;;6.00;5.40;;;1.80;99.90;;;;;;4847773;29;20300;-89
2021/03/18 00:33:10;;;;;;;8.60;5.90;;;1.80;99.90;;;;;;4880288;29;20231;-89
2021/03/18 00:35:36;;;;;;;6.03;5.30;;;1.80;99.90;;;;;;4883098;29;20258;-90
2021/03/18 00:38:02;;;;;;;7.57;5.50;;;1.80;99.90;;;;;;4865002;29;20221;-89
2021/03/18 00:40:35;;;;;;;6.20;5.17;;;1.90;99.90;;;;;;4863084;29;20734;-90
2021/03/18 00:43:05;;;;;;;6.50;5.90;;;1.90;99.90;;;;;;4865127;29;20543;-89
2021/03/18 00:45:33;;;;;;;6.33;5.60;;;1.90;99.90;;;;;;4866954;29;20897;-88
2021/03/18 00:48:00;;;;;;;6.27;5.67;;;1.90;99.90;;;;;;4865038;29;20445;-88
2021/03/18 00:50:37;;;;;;;7.10;5.97;;;1.90;99.90;;;;;;4873648;29;20472;-88
2021/03/18 00:53:04;;;;;;;6.77;6.07;;;1.80;99.90;;;;;;4880462;29;20481;-88
2021/03/18 00:55:30;;;;;;;6.27;4.63;;;1.70;99.90;;;;;;4864198;29;20445;-88
2021/03/18 00:57:55;;;;;;;7.87;6.50;;;1.80;99.90;;;;;;4863580;29;20468;-88
2021/03/18 01:00:29;;;;;;;6.50;5.90;;;1.80;99.90;;;;;;4861080;29;20457;-87
2021/03/18 01:02:55;;;;;;;5.70;5.20;;;1.80;99.90;;;;;;4878903;29;21495;-88
2021/03/18 01:05:57;;;;;;;6.80;6.13;;;1.80;99.90;;;;;;4859084;29;20704;-87
2021/03/18 01:08:26;;;;;;;7.40;6.67;;;1.80;99.90;;;;;;4877085;29;20457;-88
2021/03/18 01:11:12;;;;;;;8.63;6.80;;;1.80;99.90;;;;;;4865570;29;20527;-87
2021/03/18 01:13:43;;;;;;;6.60;5.70;;;1.80;99.90;;;;;;4880609;29;20485;-88
2021/03/18 01:16:20;;;;;;;7.43;6.63;;;1.80;99.90;;;;;;4865101;29;20464;-88
2021/03/18 01:18:51;;;;;;;8.30;6.63;;;1.70;99.90;;;;;;4864358;29;22421;-88
2021/03/18 01:21:18;;;;;;;8.40;7.57;;;1.80;99.90;;;;;;4859470;29;21063;-87
2021/03/18 01:23:45;;;;;;;7.50;6.20;;;1.80;99.90;;;;;;4866929;29;20473;-86
2021/03/18 01:26:11;;;;;;;7.20;6.50;;;1.70;99.90;;;;;;4867436;29;20457;-87
2021/03/18 01:28:38;;;;;;;7.30;6.60;;;1.80;99.90;;;;;;4882663;29;20457;-87
2021/03/18 01:31:06;;;;;;;7.50;6.17;;;1.90;99.90;;;;;;4866507;29;21071;-86
2021/03/18 01:33:33;;;;;;;8.23;7.07;;;1.90;99.90;;;;;;4868203;29;20572;-87
2021/03/18 01:36:00;;;;;;;7.83;7.03;;;1.90;99.90;;;;;;4864481;29;20460;-87
2021/03/18 01:38:30;;;;;;;7.37;6.67;;;1.90;99.90;;;;;;4865993;29;20517;-87
2021/03/18 01:40:57;;;;;;;7.70;6.57;;;2.00;99.90;;;;;;4865365;29;20453;-87
2021/03/18 01:43:27;;;;;;;8.00;6.80;;;2.10;99.90;;;;;;4865962;29;20466;-88
2021/03/18 01:45:53;;;;;;;8.23;7.33;;;2.10;99.90;;;;;;4865196;29;20495;-88
2021/03/18 01:48:19;;;;;;;7.80;6.90;;;2.20;99.90;;;;;;4865475;29;20453;-87
2021/03/18 01:50:46;;;;;;;6.97;6.10;;;2.20;99.90;;;;;;4864004;29;20449;-87
2021/03/18 01:53:12;;;;;;;6.93;6.20;;;2.20;99.90;;;;;;4878737;29;20985;-87
2021/03/18 01:55:40;;;;;;;6.93;6.20;;;2.30;99.90;;;;;;4866599;29;20437;-88
2021/03/18 01:58:09;;;;;;;6.83;6.13;;;2.30;99.90;;;;;;4867189;29;20464;-88
2021/03/18 02:00:37;;;;;;;7.20;5.80;;;2.20;99.90;;;;;;4882045;29;20462;-88
2021/03/18 02:03:03;;;;;;;8.10;6.70;;;2.20;99.90;;;;;;4863270;29;20449;-88
2021/03/18 02:05:30;;;;;;;9.70;6.97;;;2.20;99.90;;;;;;4880402;29;20452;-88
2021/03/18 02:07:57;;;;;;;7.60;6.67;;;2.30;99.90;;;;;;4881566;29;20206;-87
2021/03/18 02:10:26;;;;;;;7.20;6.43;;;2.30;99.90;;;;;;4879228;29;21019;-87
2021/03/18 02:12:52;;;;;;;8.20;7.40;;;2.40;99.90;;;;;;4866466;29;20545;-87
2021/03/18 02:15:22;;;;;;;7.47;6.17;;;2.40;99.90;;;;;;4886289;29;20445;-87
2021/03/18 02:17:50;;;;;;;7.47;6.70;;;2.30;99.90;;;;;;4863456;29;20471;-87
2021/03/18 02:20:45;;;;;;;7.07;6.37;;;2.30;99.90;;;;;;4864648;29;20796;-87
2021/03/18 02:23:36;;;;;;;7.70;6.67;;;2.30;99.90;;;;;;4866455;29;20453;-88
2021/03/18 02:26:18;;;;;;;7.77;6.20;;;2.20;99.90;;;;;;4882900;29;20959;-87
2021/03/18 02:28:58;;;;;;;6.73;5.50;;;2.20;99.90;;;;;;4867254;29;20969;-88
2021/03/18 02:31:52;;;;;;;6.27;5.67;;;2.10;99.90;;;;;;4876062;29;20458;-88
2021/03/18 02:34:26;;;;;;;7.50;6.40;;;2.20;99.90;;;;;;4862587;29;20477;-88
2021/03/18 02:37:00;;;;;;;8.03;7.27;;;2.30;99.90;;;;;;4863426;29;24643;-88
2021/03/18 02:39:36;;;;;;;8.20;6.90;;;2.30;99.90;;;;;;4866129;29;20505;-88
2021/03/18 02:42:11;;;;;;;7.87;7.07;;;2.30;99.90;;;;;;4864019;29;20444;-88
2021/03/18 02:44:40;;;;;;;8.20;7.40;;;2.20;99.90;;;;;;4862912;29;20552;-88
2021/03/18 02:47:09;;;;;;;6.93;6.30;;;2.10;99.90;;;;;;4861796;29;20454;-88
2021/03/18 02:49:43;;;;;;;7.50;6.70;;;2.10;99.90;;;;;;4881129;29;20521;-88
2021/03/18 02:52:12;;;;;;;7.17;6.47;;;2.10;99.90;;;;;;4862905;29;20985;-88
2021/03/18 02:54:40;;;;;;;9.00;6.80;;;2.10;99.90;;;;;;4876811;29;20778;-89
2021/03/18 02:57:07;;;;;;;9.43;6.80;;;2.20;99.90;;;;;;4880804;29;20926;-88
2021/03/18 02:59:36;;;;;;;7.57;6.73;;;2.30;99.90;;;;;;4866788;29;20457;-88
2021/03/18 03:02:05;;;;;;;7.70;6.77;;;2.20;99.90;;;;;;4862048;29;20527;-88
2021/03/18 03:04:36;;;;;;;10.50;7.97;;;2.10;99.90;;;;;;4868406;29;20456;-88
2021/03/18 03:07:03;;;;;;;9.07;8.03;;;2.10;99.90;;;;;;4862198;29;20458;-88
2021/03/18 03:09:31;;;;;;;8.70;7.70;;;2.00;99.90;;;;;;4868502;29;20460;-89
2021/03/18 03:11:58;;;;;;;9.40;7.57;;;1.90;99.90;;;;;;4867164;29;20504;-88
2021/03/18 03:14:24;;;;;;;9.50;7.70;;;2.00;99.90;;;;;;4865247;29;20482;-88
2021/03/18 03:16:50;;;;;;;8.60;7.80;;;2.00;99.90;;;;;;4865515;29;20477;-88
2021/03/18 03:19:17;;;;;;;10.30;8.53;;;2.00;99.90;;;;;;4864918;29;20524;-87
2021/03/18 03:21:44;;;;;;;11.40;7.30;;;2.00;99.90;;;;;;4863907;29;21179;-87
2021/03/18 03:24:12;;;;;;;8.20;6.93;;;2.00;99.90;;;;;;4864479;29;20450;-88
2021/03/18 03:26:39;;;;;;;7.17;6.03;;;1.90;99.90;;;;;;4865911;29;20449;-88
2021/03/18 03:29:06;;;;;;;9.17;7.17;;;2.00;99.90;;;;;;4881459;29;20441;-88
2021/03/18 03:31:32;;;;;;;10.70;8.37;;;2.10;99.90;;;;;;4864204;29;20520;-88
2021/03/18 03:34:05;;;;;;;9.57;8.33;;;2.10;99.90;;;;;;4877771;29;21327;-88
2021/03/18 03:36:34;;;;;;;8.23;7.13;;;2.20;99.90;;;;;;4863031;29;20580;-87
2021/03/18 03:39:00;;;;;;;9.17;7.27;;;2.30;99.90;;;;;;4864158;29;20560;-88
2021/03/18 03:41:26;;;;;;;14.50;8.00;;;2.30;99.90;;;;;;4862366;29;23097;-88
2021/03/18 03:43:52;;;;;;;9.30;7.87;;;2.30;99.90;;;;;;4876971;29;20478;-88
2021/03/18 03:46:18;;;;;;;8.47;7.57;;;2.30;99.90;;;;;;4866717;29;20453;-87
2021/03/18 03:48:44;;;;;;;10.13;8.40;;;2.30;99.90;;;;;;4867078;29;20449;-88
2021/03/18 03:51:10;;;;;;;8.97;7.90;;;2.10;99.90;;;;;;4878823;29;20708;-87
2021/03/18 03:53:49;;;;;;;10.20;8.60;;;2.10;99.90;;;;;;4865928;29;20489;-88
2021/03/18 03:56:36;;;;;;;8.20;7.40;;;2.20;99.90;;;;;;4863322;29;20529;-88
2021/03/18 03:59:07;;;;;;;9.10;7.80;;;2.20;99.90;;;;;;4864507;29;21030;-88
2021/03/18 04:01:45;;;;;;;10.20;9.20;;;2.10;99.90;;;;;;4863232;29;20468;-88
2021/03/18 04:04:32;;;;;;;10.40;7.67;;;2.00;99.90;;;;;;4865704;29;20449;-88
2021/03/18 04:07:07;;;;;;;11.63;8.20;;;2.00;99.90;;;;;;4863778;29;20453;-87
2021/03/18 04:09:34;;;;;;;9.90;8.57;;;1.90;99.90;;;;;;4864144;29;20479;-88
2021/03/18 04:12:00;;;;;;;9.30;7.70;;;2.00;99.90;;;;;;4865792;29;20827;-88
2021/03/18 04:14:30;;;;;;;10.40;8.43;;;1.90;99.90;;;;;;4862700;29;20504;-88
2021/03/18 04:17:02;;;;;;;10.93;8.47;;;1.80;99.90;;;;;;4864650;29;20437;-88
2021/03/18 04:19:28;;;;;;;13.07;10.03;;;1.90;99.90;;;;;;4866134;29;20457;-88
2021/03/18 04:21:55;;;;;;;14.73;12.13;;;1.80;99.90;;;;;;4865348;29;20453;-88
2021/03/18 04:24:23;;;;;;;12.30;9.50;;;1.80;99.90;;;;;;4866565;29;20460;-88
2021/03/18 04:26:50;;;;;;;11.53;8.40;;;1.90;99.90;;;;;;4879112;29;20481;-88
2021/03/18 04:29:17;;;;;;;8.83;7.63;;;2.00;99.90;;;;;;4864226;29;20442;-89
2021/03/18 04:31:43;;;;;;;9.20;7.90;;;2.00;99.90;;;;;;4862478;29;20964;-88
2021/03/18 04:34:12;;;;;;;9.53;8.63;;;2.00;99.90;;;;;;4863291;29;20489;-88
2021/03/18 04:36:39;;;;;;;8.70;7.30;;;2.10;99.90;;;;;;4866298;29;20951;-88
2021/03/18 04:39:06;;;;;;;8.33;7.40;;;2.10;99.90;;;;;;4864087;29;20450;-88
2021/03/18 04:41:37;;;;;;;10.43;7.87;;;2.10;99.90;;;;;;4863299;29;20445;-87
2021/03/18 04:44:04;;;;;;;9.10;7.50;;;2.00;99.90;;;;;;4865045;29;20989;-88
2021/03/18 04:46:35;;;;;;;9.27;7.93;;;1.90;99.90;;;;;;4864934;29;21151;-88
2021/03/18 04:49:01;;;;;;;8.07;7.27;;;1.80;99.90;;;;;;4868098;29;20449;-88
2021/03/18 04:51:28;;;;;;;8.83;7.17;;;1.80;99.90;;;;;;4867496;29;20962;-89
2021/03/18 04:53:55;;;;;;;8.20;7.50;;;1.80;99.90;;;;;;4880173;29;20496;-88
2021/03/18 04:56:22;;;;;;;9.30;8.40;;;1.80;99.90;;;;;;4868976;29;21291;-88
2021/03/18 04:58:48;;;;;;;8.20;7.40;;;1.80;99.90;;;;;;4861898;29;21959;-88
2021/03/18 05:01:17;;;;;;;8.50;7.47;;;1.90;99.90;;;;;;4865593;29;20946;-89
2021/03/18 05:03:44;;;;;;;9.20;7.13;;;2.00;99.90;;;;;;4869599;29;20548;-87
2021/03/18 05:06:12;;;;;;;7.67;6.87;;;2.00;99.90;;;;;;4879870;29;20478;-88
2021/03/18 05:08:39;;;;;;;7.90;7.10;;;2.00;99.90;;;;;;4877634;29;20460;-89
2021/03/18 05:11:05;;;;;;;7.27;6.57;;;2.10;99.90;;;;;;4863429;29;20803;-89
2021/03/18 05:13:31;;;;;;;7.10;6.20;;;2.10;99.90;;;;;;4864640;29;20480;-87
2021/03/18 05:15:58;;;;;;;6.80;6.03;;;2.10;99.90;;;;;;4864818;29;20206;-87
2021/03/18 05:18:26;;;;;;;6.97;5.77;;;2.00;99.90;;;;;;4879030;29;20537;-88
2021/03/18 05:20:52;;;;;;;6.77;6.10;;;1.90;99.90;;;;;;4863077;29;20506;-88
2021/03/18 05:23:19;;;;;;;12.53;6.60;;;2.00;99.90;;;;;;4878330;29;20465;-89
2021/03/18 05:25:47;;;;;;;7.50;6.80;;;2.00;99.90;;;;;;4882129;29;20880;-87
2021/03/18 05:28:13;;;;;;;9.10;7.87;;;2.00;99.90;;;;;;4866358;29;20977;-87
2021/03/18 05:30:41;;;;;;;8.30;7.50;;;2.00;99.90;;;;;;4865472;29;20453;-87
2021/03/18 05:33:06;;;;;;;8.50;7.67;;;2.00;99.90;;;;;;4863908;29;20518;-88
2021/03/18 05:35:34;;;;;;;8.53;6.60;;;2.00;99.90;;;;;;4865074;29;20731;-87
2021/03/18 05:38:00;;;;;;;8.20;5.87;;;2.00;99.90;;;;;;4866922;29;20445;-87
2021/03/18 05:40:26;;;;;;;7.07;6.00;;;2.10;99.90;;;;;;4862552;29;20499;-87
2021/03/18 05:42:52;;;;;;;7.40;6.80;;;2.10;99.90;;;;;;4879458;29;20450;-86
2021/03/18 05:45:19;;;;;;;6.60;5.67;;;2.10;99.90;;;;;;4865467;29;20452;-88
2021/03/18 05:47:45;;;;;;;8.57;6.33;;;2.10;99.90;;;;;;4866696;29;20673;-87
2021/03/18 05:50:20;;;;;;;7.07;6.40;;;2.10;99.90;;;;;;4881461;29;20477;-93
2021/03/18 05:52:50;;;;;;;7.40;6.30;;;2.00;99.90;;;;;;4883926;29;20488;-93
2021/03/18 05:55:22;;;;;;;8.90;7.20;;;2.00;99.90;;;;;;4877835;29;20453;-96
2021/03/18 05:57:52;;;;;;;9.10;8.30;;;2.10;99.90;;;;;;4881963;29;20473;-96
2021/03/18 06:00:35;;;;;;;;;;;;;;;;;;;;;
2021/03/18 06:03:51;;;;;;;6.63;5.80;;;2.20;99.90;;;;;;4904772;29;20452;-96
2021/03/18 06:06:27;;;;;;;;;;;;;;;;;;;;;
2021/03/18 06:09:23;;;;;;;9.97;8.90;;;2.20;99.90;;;;;;4895509;29;21627;-96
2021/03/18 06:11:51;;;;;;;7.80;7.00;;;2.20;99.90;;;;;;4880778;29;20461;-96
2021/03/18 06:14:16;;;;;;;8.40;6.47;;;2.20;99.90;;;;;;4875419;29;20846;-96
2021/03/18 06:16:43;;;;;;;7.07;6.37;;;2.10;99.90;;;;;;4873536;29;20517;-96
2021/03/18 06:19:20;;;;;;;7.80;6.47;;;2.00;99.90;;;;;;4881619;29;20272;-96
2021/03/18 06:21:54;;;;;;;8.30;7.10;;;2.00;99.90;;;;;;4883980;29;20446;-96
2021/03/18 06:24:35;;;;;;;9.57;7.83;;;2.10;99.90;;;;;;4886031;29;20444;-96
2021/03/18 06:27:31;;;;;;;11.17;6.83;;;2.10;99.90;;;;;;4908184;29;20469;-96
2021/03/18 06:29:59;;;;;;;9.60;7.90;;;2.20;99.90;;;;;;4899031;29;20454;-96
2021/03/18 06:32:44;;;;;;;9.13;7.40;;;2.20;99.90;;;;;;4900015;29;20481;-96
2021/03/18 06:35:10;;;;;;;9.03;6.27;;;2.10;99.90;;;;;;4872807;29;20457;-92
2021/03/18 06:37:47;;;;;;;7.67;6.23;;;2.10;99.90;;;;;;4872566;29;20730;-96
2021/03/18 06:40:27;;;;;;;6.20;5.60;;;2.20;99.90;;;;;;4889907;29;20421;-96
2021/03/18 06:42:56;;;;;;;7.37;4.93;;;2.40;99.90;;;;;;4899973;29;20445;-96
2021/03/18 06:45:49;;;;;;;9.17;5.50;;;2.50;99.90;;;;;;4886790;29;20505;-96
2021/03/18 06:48:16;;;;;;;8.40;6.63;;;2.70;99.90;;;;;;4874007;29;20446;-93
2021/03/18 06:50:46;;;;;;;7.77;5.67;;;3.00;99.90;;;;;;4886125;29;20795;-95
2021/03/18 06:53:21;;;;;;;8.80;6.30;;;3.20;99.90;;;;;;4869284;29;20489;-86
2021/03/18 06:55:47;;;;;;;9.07;6.00;;;3.10;99.90;;;;;;4866100;29;20511;-89
2021/03/18 06:58:27;;;;;;;6.57;5.90;;;3.30;99.90;;;;;;4873533;29;20473;-89
2021/03/18 07:01:04;;;;;;;8.73;5.80;;;3.50;99.90;;;;;;4865878;29;20497;-89
2021/03/18 07:03:35;;;;;;;7.80;6.00;;;3.70;99.90;;;;;;4874685;29;20488;-88
2021/03/18 07:06:04;;;;;;;9.30;5.83;;;3.80;99.90;;;;;;4872967;29;20777;-89
2021/03/18 07:08:35;;;;;;;7.13;5.80;;;3.80;99.90;;;;;;4870671;29;20527;-88
2021/03/18 07:11:18;;;;;;;8.27;5.60;;;3.80;99.90;;;;;;4873438;29;20506;-89
2021/03/18 07:13:45;;;;;;;6.50;5.20;;;3.80;99.90;;;;;;4870250;29;20503;-88
2021/03/18 07:16:12;;;;;;;8.93;5.70;;;3.60;99.90;;;;;;4868084;29;20518;-88
2021/03/18 07:18:39;;;;;;;9.00;6.70;;;3.50;99.90;;;;;;4867371;29;20820;-89
2021/03/18 07:21:13;;;;;;;10.50;6.87;;;3.40;99.90;;;;;;4870988;29;20977;-89
2021/03/18 07:23:43;;;;;;;10.03;6.63;;;3.30;99.90;;;;;;4870874;29;20465;-88
2021/03/18 07:26:20;;;;;;;7.67;6.13;;;3.30;99.90;;;;;;4871108;29;20457;-91
2021/03/18 07:28:52;;;;;;;8.03;6.87;;;3.50;99.90;;;;;;4865580;29;20762;-90
2021/03/18 07:31:20;;;;;;;18.80;13.27;;;3.60;99.90;;;;;;4867822;29;20880;-90
2021/03/18 07:33:47;;;;;;;10.70;7.40;;;3.70;99.90;;;;;;4864145;29;20561;-92
2021/03/18 07:36:15;;;;;;;6.87;6.17;;;3.90;99.90;;;;;;4870453;29;20699;-91
2021/03/18 07:38:43;;;;;;;7.67;6.03;;;4.00;99.90;;;;;;4863163;29;20467;-86
2021/03/18 07:41:14;;;;;;;9.40;6.93;;;4.20;99.90;;;;;;4863987;29;20523;-86
2021/03/18 07:43:45;;;;;;;9.23;7.37;;;4.20;99.90;;;;;;4868309;29;20464;-85
2021/03/18 07:46:16;;;;;;;9.83;7.60;;;4.00;99.90;;;;;;4882857;29;20505;-85
2021/03/18 07:48:46;;;;;;;9.63;7.43;;;3.90;99.90;;;;;;4866466;29;20544;-85
2021/03/18 07:51:15;;;;;;;7.90;6.83;;;4.00;99.90;;;;;;4862005;29;20720;-84
2021/03/18 07:53:41;;;;;;;11.00;7.90;;;4.20;99.90;;;;;;4863993;29;20481;-86
2021/03/18 07:56:15;;;;;;;8.00;6.37;;;4.40;99.90;;;;;;4870312;29;20441;-85
2021/03/18 07:58:43;;;;;;;12.27;7.47;;;4.60;99.90;;;;;;4870853;29;20459;-85
2021/03/18 08:01:30;;;;;;;14.80;8.10;;;4.80;99.90;;;;;;4870752;29;20452;-85
2021/03/18 08:04:02;;;;;;;13.17;7.83;;;4.90;99.90;;;;;;4873554;29;20437;-84
2021/03/18 08:06:40;;;;;;;7.53;6.33;;;4.80;99.90;;;;;;4871881;29;20442;-84
2021/03/18 08:09:38;;;;;;;11.37;7.30;;;4.80;99.90;;;;;;4870900;29;20826;-85
2021/03/18 08:12:04;;;;;;;9.10;6.63;;;5.10;99.90;;;;;;4828265;29;20443;-85
2021/03/18 08:14:30;;;;;;;7.87;5.67;;;5.40;99.90;;;;;;4879718;29;20543;-84
2021/03/18 08:16:56;;;;;;;9.30;6.83;;;5.50;99.90;;;;;;4864590;29;20876;-85
2021/03/18 08:19:22;;;;;;;12.27;8.17;;;5.70;99.90;;;;;;4869776;29;20201;-85
2021/03/18 08:21:50;;;;;;;13.70;11.40;;;5.70;99.90;;;;;;4867417;29;20559;-84
2021/03/18 08:24:22;;;;;;;9.83;7.73;;;5.70;99.90;;;;;;4865168;29;20972;-83
2021/03/18 08:27:26;;;;;;;11.87;8.13;;;5.20;99.90;;;;;;4865716;29;20473;-94
2021/03/18 08:29:52;;;;;;;11.37;7.90;;;4.70;99.90;;;;;;4866443;29;20612;-90
2021/03/18 08:32:28;;;;;;;14.33;7.47;;;4.50;99.90;;;;;;4864328;29;20535;-91
2021/03/18 08:35:06;;;;;;;10.40;7.50;;;4.40;99.90;;;;;;4864650;29;20196;-92
2021/03/18 08:37:34;;;;;;;8.50;6.60;;;4.40;99.90;;;;;;4865555;29;20464;-90
2021/03/18 08:40:02;;;;;;;8.23;7.10;;;4.30;99.90;;;;;;4866821;29;20463;-93
2021/03/18 08:42:28;;;;;;;11.90;7.97;;;4.10;99.90;;;;;;4862253;29;20445;-90
2021/03/18 08:44:56;;;;;;;14.57;9.13;;;4.00;99.90;;;;;;4864737;29;21027;-92
2021/03/18 08:47:37;;;;;;;12.43;8.30;;;4.30;99.90;;;;;;4881411;29;20230;-92
2021/03/18 08:50:13;;;;;;;10.10;7.70;;;4.90;99.90;;;;;;4869711;29;20448;-89
2021/03/18 08:53:35;;;;;;;9.90;8.00;;;4.70;99.90;;;;;;4863412;29;20483;-93
2021/03/18 08:56:00;;;;;;;9.33;8.13;;;4.60;99.90;;;;;;4864183;29;20508;-91
2021/03/18 08:58:26;;;;;;;9.47;7.70;;;4.80;99.90;;;;;;4866727;29;21053;-92
2021/03/18 09:00:52;;;;;;;10.73;8.27;;;4.80;99.90;;;;;;4866663;29;20188;-95
2021/03/18 09:03:21;;;;;;;12.03;8.10;;;5.00;99.90;;;;;;4865940;29;20410;-89
2021/03/18 09:05:57;;;;;;;11.10;7.33;;;5.10;99.90;;;;;;4866971;29;20820;-93
2021/03/18 09:08:26;;;;;;;8.67;7.70;;;5.00;99.90;;;;;;4867182;29;20459;-91
2021/03/18 09:10:54;;;;;;;12.97;7.70;;;4.90;99.90;;;;;;4863121;29;20466;-90
2021/03/18 09:13:22;;;;;;;10.87;7.30;;;4.80;99.90;;;;;;4864597;29;20567;-89
2021/03/18 09:15:58;;;;;;;10.13;8.17;;;4.60;99.90;;;;;;4865693;29;20440;-90
2021/03/18 09:18:31;;;;;;;12.70;7.47;;;4.40;99.90;;;;;;4863918;29;20567;-88
2021/03/18 09:21:12;;;;;;;9.73;8.50;;;4.30;99.90;;;;;;4863272;29;20460;-95
2021/03/18 09:23:43;;;;;;;9.57;8.13;;;4.20;99.90;;;;;;4860675;29;20469;-84
2021/03/18 09:26:11;;;;;;;12.67;9.17;;;4.30;99.90;;;;;;4864859;29;20452;-82
2021/03/18 09:28:40;;;;;;;10.33;8.37;;;4.50;99.90;;;;;;4865141;29;24834;-83
2021/03/18 09:31:06;;;;;;;9.70;8.70;;;4.80;99.90;;;;;;4869217;29;20449;-81
2021/03/18 09:33:36;;;;;;;9.00;7.60;;;4.80;99.90;;;;;;4866970;29;20488;-82
2021/03/18 09:36:23;;;;;;;10.87;7.23;;;4.80;99.90;;;;;;4866101;29;20448;-82
2021/03/18 09:39:10;;;;;;;10.77;9.33;;;4.80;99.90;;;;;;4881940;29;20864;-83
2021/03/18 09:41:45;;;;;;;11.10;8.07;;;4.80;99.90;;;;;;4865215;29;20452;-84
2021/03/18 09:44:15;;;;;;;8.97;7.67;;;4.90;99.90;;;;;;4868754;29;20456;-83
2021/03/18 09:46:50;;;;;;;10.80;7.30;;;5.20;99.90;;;;;;4867294;29;20445;-83
2021/03/18 09:49:16;;;;;;;10.40;7.20;;;5.50;99.90;;;;;;4890236;29;20497;-84
2021/03/18 09:51:43;;;;;;;13.20;8.50;;;5.80;99.90;;;;;;4869404;29;20449;-84
2021/03/18 09:54:12;;;;;;;13.13;7.83;;;5.50;99.90;;;;;;4870868;29;20841;-83
2021/03/18 09:56:38;;;;;;;9.30;7.13;;;5.20;99.90;;;;;;4871500;29;20444;-84
2021/03/18 09:59:10;;;;;;;7.00;6.30;;;5.20;99.90;;;;;;4870080;29;20453;-84
2021/03/18 10:01:37;;;;;;;8.83;5.70;;;5.40;99.90;;;;;;4887342;29;20441;-84
2021/03/18 10:04:04;;;;;;;7.93;6.20;;;5.30;99.90;;;;;;4870479;29;20537;-84
2021/03/18 10:06:36;;;;;;;7.47;5.67;;;5.40;99.90;;;;;;4864326;29;20989;-84
2021/03/18 10:09:26;;;;;;;6.97;6.30;;;5.30;99.90;;;;;;4868189;29;20928;-85
2021/03/18 10:11:55;;;;;;;7.30;5.80;;;5.30;99.90;;;;;;4866208;29;20966;-85
2021/03/18 10:14:34;;;;;;;7.70;5.90;;;5.10;99.90;;;;;;4864957;29;20547;-89
2021/03/18 10:17:01;;;;;;;12.93;5.77;;;5.20;99.90;;;;;;4871846;29;20952;-89
2021/03/18 10:19:32;;;;;;;8.10;5.53;;;5.30;99.90;;;;;;4868492;29;20512;-89
2021/03/18 10:22:06;;;;;;;7.00;6.10;;;5.40;99.90;;;;;;4868967;29;21022;-88
2021/03/18 10:24:32;;;;;;;8.03;5.60;;;5.60;99.90;;;;;;4866619;29;20460;-89
2021/03/18 10:27:25;;;;;;;10.60;6.20;;;5.90;99.90;;;;;;4867951;29;21074;-89
2021/03/18 10:29:51;;;;;;;8.80;6.47;;;5.90;99.90;;;;;;4870148;29;20478;-88
2021/03/18 10:32:19;;;;;;;8.10;7.37;;;5.90;99.90;;;;;;4870773;29;20447;-88
2021/03/18 10:34:55;;;;;;;8.07;6.60;;;6.10;99.90;;;;;;4885374;29;20216;-88
2021/03/18 10:37:43;;;;;;;9.30;6.00;;;6.10;99.90;;;;;;4867411;29;20453;-87
2021/03/18 10:40:26;;;;;;;9.10;6.50;;;6.30;99.90;;;;;;4869294;29;20465;-87
2021/03/18 10:42:58;;;;;;;9.30;5.90;;;6.30;99.90;;;;;;4867464;29;20826;-88
2021/03/18 10:45:27;;;;;;;5.73;5.10;;;6.20;99.90;;;;;;4866905;29;20469;-88
2021/03/18 10:47:56;;;;;;;12.67;7.90;;;6.10;99.90;;;;;;4867811;29;20470;-85
2021/03/18 10:50:28;;;;;;;8.23;6.57;;;6.20;99.70;;;;;;4868639;29;20864;-85
2021/03/18 10:53:00;;;;;;;8.07;6.20;;;6.10;99.30;;;;;;4867389;29;20481;-85
2021/03/18 10:55:32;;;;;;;5.60;4.97;;;6.10;99.70;;;;;;4864835;29;20875;-85
2021/03/18 10:58:13;;;;;;;5.40;4.30;;;6.20;99.00;;;;;;4861754;29;20464;-85
2021/03/18 11:00:47;;;;;;;8.17;4.57;;;6.50;97.70;;;;;;4862574;29;20556;-83
2021/03/18 11:03:17;;;;;;;5.40;4.90;;;6.90;96.70;;;;;;4861509;29;20452;-85
2021/03/18 11:09:25;;;;;;;6.03;5.07;;;7.30;96.90;;;;;;4878083;29;20510;-86
2021/03/18 11:11:58;;;;;;;6.60;5.70;;;7.20;95.70;;;;;;4876270;29;21454;-85
2021/03/18 11:14:27;;;;;;;5.63;5.13;;;6.60;96.00;;;;;;4861037;29;20482;-85
2021/03/18 11:17:07;;;;;;;7.77;5.20;;;6.30;95.90;;;;;;4875889;29;20684;-85
2021/03/18 11:19:32;;;;;;;5.83;5.23;;;6.30;97.40;;;;;;4858157;29;20464;-85
2021/03/18 11:22:04;;;;;;;6.10;5.30;;;6.70;96.90;;;;;;4879537;29;20450;-85
2021/03/18 11:24:29;;;;;;;10.90;4.80;;;7.10;95.40;;;;;;4879120;29;20194;-86
2021/03/18 11:26:59;;;;;;;4.53;4.13;;;7.50;95.20;;;;;;4861846;29;20470;-85
2021/03/18 11:29:34;;;;;;;5.20;4.50;;;7.70;93.90;;;;;;4862591;29;20294;-85
2021/03/18 11:32:03;;;;;;;8.57;4.63;;;7.90;93.80;;;;;;4863615;29;20890;-85
2021/03/18 11:34:31;;;;;;;6.13;4.43;;;7.90;94.60;;;;;;4859064;29;21103;-85
2021/03/18 11:37:04;;;;;;;7.73;4.77;;;7.90;92.30;;;;;;4862212;29;20442;-86
2021/03/18 11:39:32;;;;;;;6.20;5.60;;;8.00;93.10;;;;;;4851353;29;21294;-89
2021/03/18 11:41:58;;;;;;;7.27;5.73;;;8.30;91.60;;;;;;4861838;29;20604;-89
2021/03/18 11:44:29;;;;;;;8.43;5.37;;;7.60;91.60;;;;;;4862756;29;20504;-89
2021/03/18 11:47:06;;;;;;;8.20;5.80;;;6.90;93.40;;;;;;4860926;29;21072;-87
2021/03/18 11:49:35;;;;;;;5.50;4.97;;;7.40;94.60;;;;;;4860036;29;20833;-90
2021/03/18 11:52:02;;;;;;;7.63;5.80;;;7.80;93.70;;;;;;4842103;29;20460;-87
2021/03/18 11:54:34;;;;;;;6.70;5.70;;;8.00;92.30;;;;;;4861012;29;20592;-86
2021/03/18 11:57:13;;;;;;;6.80;5.30;;;7.10;92.50;;;;;;4882969;29;21607;-87
2021/03/18 11:59:49;;;;;;;5.63;5.03;;;7.20;92.40;;;;;;4869425;29;20497;-83
2021/03/18 12:02:15;;;;;;;11.00;6.30;;;7.50;92.30;;;;;;4859948;29;20455;-87
2021/03/18 12:04:44;;;;;;;6.03;4.53;;;7.40;93.60;;;;;;4859751;29;20530;-87
2021/03/18 12:07:10;;;;;;;6.83;4.50;;;7.40;91.80;;;;;;4861350;29;20459;-87
2021/03/18 12:09:47;;;;;;;4.77;4.27;;;7.70;91.10;;;;;;4878042;29;20514;-87
2021/03/18 12:12:13;;;;;;;6.80;5.47;;;8.40;86.20;;;;;;4846807;29;20288;-88
2021/03/18 12:14:39;;;;;;;7.87;5.00;;;9.70;87.90;;;;;;4878802;29;20584;-87
2021/03/18 12:17:04;;;;;;;5.53;4.93;;;10.90;74.30;;;;;;4860776;29;20189;-88
2021/03/18 12:19:30;;;;;;;8.90;5.73;;;10.30;73.60;;;;;;4860793;29;20373;-88
2021/03/18 12:21:56;;;;;;;7.10;5.67;;;10.90;73.50;;;;;;4854483;29;20261;-88
2021/03/18 12:24:22;;;;;;;6.47;5.10;;;11.20;65.50;;;;;;4858827;29;20481;-87
2021/03/18 12:26:48;;;;;;;6.13;4.93;;;10.80;62.90;;;;;;4844339;29;20428;-87
2021/03/18 12:29:16;;;;;;;5.40;4.63;;;10.40;70.10;;;;;;4874298;29;20264;-88
2021/03/18 12:31:43;;;;;;;5.03;4.63;;;10.30;59.60;;;;;;4875723;29;20566;-87
2021/03/18 12:34:11;;;;;;;5.70;4.70;;;9.50;62.90;;;;;;4860793;29;20847;-88
2021/03/18 12:36:40;;;;;;;5.67;4.63;;;9.40;68.40;;;;;;4874900;29;20461;-89
2021/03/18 12:39:06;;;;;;;10.70;4.90;;;8.40;70.20;;;;;;4861516;29;20460;-87
2021/03/18 12:41:36;;;;;;;5.33;4.53;;;8.30;73.30;;;;;;4861481;29;20437;-87
2021/03/18 12:44:02;;;;;;;6.00;5.17;;;9.40;73.70;;;;;;4857753;29;20497;-87
2021/03/18 12:46:28;;;;;;;5.13;4.43;;;10.70;76.10;;;;;;4860993;29;20550;-87
2021/03/18 12:48:56;;;;;;;5.97;4.97;;;10.90;66.20;;;;;;4858803;29;20823;-87
2021/03/18 12:51:23;;;;;;;4.73;4.20;;;9.70;68.30;;;;;;4857575;29;21218;-87
2021/03/18 12:53:51;;;;;;;8.00;4.63;;;8.50;70.80;;;;;;4861563;29;20487;-87
2021/03/18 12:56:17;;;;;;;4.50;4.10;;;7.60;80.70;;;;;;4861294;29;20523;-87
2021/03/18 12:58:46;;;;;;;6.30;4.63;;;7.20;84.10;;;;;;4857704;29;21699;-87
2021/03/18 13:01:12;;;;;;;5.30;4.17;;;7.20;82.90;;;;;;4859410;29;20464;-86
2021/03/18 13:03:37;;;;;;;4.17;3.87;;;7.60;84.70;;;;;;4858856;29;20260;-88
2021/03/18 13:06:06;;;;;;;8.83;4.33;;;8.30;82.80;;;;;;4875952;29;20557;-88
2021/03/18 13:08:33;;;;;;;6.53;3.97;;;8.80;80.10;;;;;;4863936;29;20192;-85
2021/03/18 13:10:59;;;;;;;4.50;3.93;;;9.10;79.30;;;;;;4863564;29;20826;-88
2021/03/18 13:13:25;;;;;;;4.90;3.80;;;9.10;75.90;;;;;;4862442;29;20477;-89
2021/03/18 13:15:52;;;;;;;3.37;3.07;;;8.10;85.00;;;;;;4864049;29;20564;-87
2021/03/18 13:18:21;;;;;;;4.23;3.67;;;7.60;91.00;;;;;;4864194;29;20456;-87
2021/03/18 13:20:47;;;;;;;3.70;3.40;;;7.70;91.90;;;;;;4863684;29;20843;-86